sensor_id;sensor_type;location;lat;lon;timestamp;temperature;humidity
35700;DHT22;21818;51.078;12.108;2023-07-31T00:01:21;19.70;88.70
35700;DHT22;21818;51.078;12.108;2023-07-31T00:03:47;19.50;89.00
35700;DHT22;21818;51.078;12.108;2023-07-31T00:06:13;19.50;89.30
35700;DHT22;21818;51.078;12.108;2023-07-31T00:08:38;19.50;89.40
35700;DHT22;21818;51.078;12.108;2023-07-31T00:11:04;19.50;89.20
35700;DHT22;21818;51.078;12.108;2023-07-31T00:13:29;19.60;89.30
35700;DHT22;21818;51.078;12.108;2023-07-31T00:15:55;19.40;89.50
35700;DHT22;21818;51.078;12.108;2023-07-31T00:18:20;19.30;89.80
35700;DHT22;21818;51.078;12.108;2023-07-31T00:20:46;19.40;89.90
35700;DHT22;21818;51.078;12.108;2023-07-31T00:23:12;19.40;89.90
35700;DHT22;21818;51.078;12.108;2023-07-31T00:25:37;19.50;89.60
35700;DHT22;21818;51.078;12.108;2023-07-31T00:28:03;19.50;89.40
35700;DHT22;21818;51.078;12.108;2023-07-31T00:30:29;19.50;89.20
35700;DHT22;21818;51.078;12.108;2023-07-31T00:32:54;19.50;89.20
35700;DHT22;21818;51.078;12.108;2023-07-31T00:35:20;19.50;89.20
35700;DHT22;21818;51.078;12.108;2023-07-31T00:37:45;19.60;89.10
35700;DHT22;21818;51.078;12.108;2023-07-31T00:40:11;19.60;88.80
35700;DHT22;21818;51.078;12.108;2023-07-31T00:42:37;19.60;88.80
35700;DHT22;21818;51.078;12.108;2023-07-31T00:45:03;19.60;88.80
35700;DHT22;21818;51.078;12.108;2023-07-31T00:47:28;19.60;88.60
35700;DHT22;21818;51.078;12.108;2023-07-31T00:49:54;19.70;88.50
35700;DHT22;21818;51.078;12.108;2023-07-31T00:52:20;19.80;88.30
35700;DHT22;21818;51.078;12.108;2023-07-31T00:54:46;19.70;88.00
35700;DHT22;21818;51.078;12.108;2023-07-31T00:57:12;19.70;88.00
35700;DHT22;21818;51.078;12.108;2023-07-31T00:59:37;19.80;87.90
35700;DHT22;21818;51.078;12.108;2023-07-31T01:02:04;19.80;87.70
35700;DHT22;21818;51.078;12.108;2023-07-31T01:04:29;19.80;87.60
35700;DHT22;21818;51.078;12.108;2023-07-31T01:07:04;19.90;87.40
35700;DHT22;21818;51.078;12.108;2023-07-31T01:09:47;19.90;87.40
35700;DHT22;21818;51.078;12.108;2023-07-31T01:12:15;19.90;87.50
35700;DHT22;21818;51.078;12.108;2023-07-31T01:15:04;19.90;87.50
35700;DHT22;21818;51.078;12.108;2023-07-31T01:17:30;19.90;87.30
35700;DHT22;21818;51.078;12.108;2023-07-31T01:20:02;19.80;87.40
35700;DHT22;21818;51.078;12.108;2023-07-31T01:27:48;19.70;87.80
35700;DHT22;21818;51.078;12.108;2023-07-31T01:30:17;19.70;88.00
35700;DHT22;21818;51.078;12.108;2023-07-31T01:32:48;19.70;88.00
35700;DHT22;21818;51.078;12.108;2023-07-31T01:35:15;19.70;88.00
35700;DHT22;21818;51.078;12.108;2023-07-31T01:37:40;19.60;88.20
35700;DHT22;21818;51.078;12.108;2023-07-31T01:40:07;19.60;88.30
35700;DHT22;21818;51.078;12.108;2023-07-31T01:42:33;19.60;88.50
35700;DHT22;21818;51.078;12.108;2023-07-31T01:44:58;19.60;88.70
35700;DHT22;21818;51.078;12.108;2023-07-31T01:47:24;19.50;88.90
35700;DHT22;21818;51.078;12.108;2023-07-31T01:49:49;19.50;89.00
35700;DHT22;21818;51.078;12.108;2023-07-31T01:52:15;19.60;88.90
35700;DHT22;21818;51.078;12.108;2023-07-31T01:54:41;19.60;89.00
35700;DHT22;21818;51.078;12.108;2023-07-31T01:57:06;19.50;89.10
35700;DHT22;21818;51.078;12.108;2023-07-31T01:59:32;19.50;89.30
35700;DHT22;21818;51.078;12.108;2023-07-31T02:01:58;19.60;89.40
35700;DHT22;21818;51.078;12.108;2023-07-31T02:04:23;19.50;89.60
35700;DHT22;21818;51.078;12.108;2023-07-31T02:06:49;19.50;89.80
35700;DHT22;21818;51.078;12.108;2023-07-31T02:09:14;19.40;90.10
35700;DHT22;21818;51.078;12.108;2023-07-31T02:11:40;19.40;90.20
35700;DHT22;21818;51.078;12.108;2023-07-31T02:14:05;19.40;90.20
35700;DHT22;21818;51.078;12.108;2023-07-31T02:16:31;19.40;90.20
35700;DHT22;21818;51.078;12.108;2023-07-31T02:18:57;19.40;90.20
35700;DHT22;21818;51.078;12.108;2023-07-31T02:21:22;19.30;90.30
35700;DHT22;21818;51.078;12.108;2023-07-31T02:23:48;19.30;90.50
35700;DHT22;21818;51.078;12.108;2023-07-31T02:26:14;19.30;90.50
35700;DHT22;21818;51.078;12.108;2023-07-31T02:28:39;19.40;90.50
35700;DHT22;21818;51.078;12.108;2023-07-31T02:31:08;19.30;90.60
35700;DHT22;21818;51.078;12.108;2023-07-31T02:33:33;19.30;90.60
35700;DHT22;21818;51.078;12.108;2023-07-31T02:35:59;19.30;90.60
35700;DHT22;21818;51.078;12.108;2023-07-31T02:38:24;19.30;90.60
35700;DHT22;21818;51.078;12.108;2023-07-31T02:40:50;19.40;90.60
35700;DHT22;21818;51.078;12.108;2023-07-31T02:43:16;19.40;90.70
35700;DHT22;21818;51.078;12.108;2023-07-31T02:45:41;19.40;90.70
35700;DHT22;21818;51.078;12.108;2023-07-31T02:48:07;19.30;90.80
35700;DHT22;21818;51.078;12.108;2023-07-31T02:50:33;19.20;90.90
35700;DHT22;21818;51.078;12.108;2023-07-31T02:52:58;19.30;91.00
35700;DHT22;21818;51.078;12.108;2023-07-31T02:55:24;19.20;90.90
35700;DHT22;21818;51.078;12.108;2023-07-31T02:57:49;19.20;91.00
35700;DHT22;21818;51.078;12.108;2023-07-31T03:00:15;19.20;91.10
35700;DHT22;21818;51.078;12.108;2023-07-31T03:02:41;19.10;91.10
35700;DHT22;21818;51.078;12.108;2023-07-31T03:05:07;19.20;91.10
35700;DHT22;21818;51.078;12.108;2023-07-31T03:07:33;19.10;91.20
35700;DHT22;21818;51.078;12.108;2023-07-31T03:09:58;19.00;91.30
35700;DHT22;21818;51.078;12.108;2023-07-31T03:12:24;19.00;91.30
35700;DHT22;21818;51.078;12.108;2023-07-31T03:14:50;19.10;91.40
35700;DHT22;21818;51.078;12.108;2023-07-31T03:17:15;19.10;91.30
35700;DHT22;21818;51.078;12.108;2023-07-31T03:19:41;19.10;91.40
35700;DHT22;21818;51.078;12.108;2023-07-31T03:22:06;19.10;91.50
35700;DHT22;21818;51.078;12.108;2023-07-31T03:24:32;19.00;91.60
35700;DHT22;21818;51.078;12.108;2023-07-31T03:26:57;19.10;91.60
35700;DHT22;21818;51.078;12.108;2023-07-31T03:29:23;19.10;91.70
35700;DHT22;21818;51.078;12.108;2023-07-31T03:31:49;19.20;91.60
35700;DHT22;21818;51.078;12.108;2023-07-31T03:34:14;19.10;91.80
35700;DHT22;21818;51.078;12.108;2023-07-31T03:36:40;19.00;91.90
35700;DHT22;21818;51.078;12.108;2023-07-31T03:39:05;19.00;92.00
35700;DHT22;21818;51.078;12.108;2023-07-31T03:41:31;19.10;92.00
35700;DHT22;21818;51.078;12.108;2023-07-31T03:43:56;19.00;92.10
35700;DHT22;21818;51.078;12.108;2023-07-31T03:46:23;19.00;92.30
35700;DHT22;21818;51.078;12.108;2023-07-31T03:48:49;18.90;92.50
35700;DHT22;21818;51.078;12.108;2023-07-31T03:51:15;18.80;92.70
35700;DHT22;21818;51.078;12.108;2023-07-31T03:53:42;18.80;92.70
35700;DHT22;21818;51.078;12.108;2023-07-31T03:56:07;18.80;92.90
35700;DHT22;21818;51.078;12.108;2023-07-31T03:58:33;18.80;92.90
35700;DHT22;21818;51.078;12.108;2023-07-31T04:00:58;18.80;92.90
35700;DHT22;21818;51.078;12.108;2023-07-31T04:03:24;18.70;93.00
35700;DHT22;21818;51.078;12.108;2023-07-31T04:05:50;18.80;93.10
35700;DHT22;21818;51.078;12.108;2023-07-31T04:08:15;18.80;93.20
35700;DHT22;21818;51.078;12.108;2023-07-31T04:10:41;18.80;93.20
35700;DHT22;21818;51.078;12.108;2023-07-31T04:13:06;18.80;93.30
35700;DHT22;21818;51.078;12.108;2023-07-31T04:15:32;18.80;93.50
35700;DHT22;21818;51.078;12.108;2023-07-31T04:17:57;18.70;93.50
35700;DHT22;21818;51.078;12.108;2023-07-31T04:20:23;18.80;93.70
35700;DHT22;21818;51.078;12.108;2023-07-31T04:22:49;18.80;93.60
35700;DHT22;21818;51.078;12.108;2023-07-31T04:25:14;18.80;93.50
35700;DHT22;21818;51.078;12.108;2023-07-31T04:27:40;18.80;93.40
35700;DHT22;21818;51.078;12.108;2023-07-31T04:30:06;18.90;93.70
35700;DHT22;21818;51.078;12.108;2023-07-31T04:32:32;18.90;93.70
35700;DHT22;21818;51.078;12.108;2023-07-31T04:34:57;18.90;93.40
35700;DHT22;21818;51.078;12.108;2023-07-31T04:37:23;18.90;93.50
35700;DHT22;21818;51.078;12.108;2023-07-31T04:39:48;18.80;93.50
35700;DHT22;21818;51.078;12.108;2023-07-31T04:42:14;18.80;93.70
35700;DHT22;21818;51.078;12.108;2023-07-31T04:44:40;18.70;93.80
35700;DHT22;21818;51.078;12.108;2023-07-31T04:47:05;18.60;93.80
35700;DHT22;21818;51.078;12.108;2023-07-31T04:49:32;18.60;93.90
35700;DHT22;21818;51.078;12.108;2023-07-31T04:51:58;18.60;93.90
35700;DHT22;21818;51.078;12.108;2023-07-31T04:54:23;18.70;94.00
35700;DHT22;21818;51.078;12.108;2023-07-31T04:56:49;18.60;94.00
35700;DHT22;21818;51.078;12.108;2023-07-31T04:59:14;18.60;94.00
35700;DHT22;21818;51.078;12.108;2023-07-31T05:01:40;18.60;94.20
35700;DHT22;21818;51.078;12.108;2023-07-31T05:04:06;18.50;94.40
35700;DHT22;21818;51.078;12.108;2023-07-31T05:06:32;18.50;94.30
35700;DHT22;21818;51.078;12.108;2023-07-31T05:08:58;18.60;94.40
35700;DHT22;21818;51.078;12.108;2023-07-31T05:11:24;18.50;94.40
35700;DHT22;21818;51.078;12.108;2023-07-31T05:13:49;18.50;94.40
35700;DHT22;21818;51.078;12.108;2023-07-31T05:16:15;18.60;94.50
35700;DHT22;21818;51.078;12.108;2023-07-31T05:18:40;18.50;94.50
35700;DHT22;21818;51.078;12.108;2023-07-31T05:21:06;18.50;94.50
35700;DHT22;21818;51.078;12.108;2023-07-31T05:23:31;18.80;94.30
35700;DHT22;21818;51.078;12.108;2023-07-31T05:26:05;19.00;94.00
35700;DHT22;21818;51.078;12.108;2023-07-31T05:28:31;19.20;93.70
35700;DHT22;21818;51.078;12.108;2023-07-31T05:31:00;19.30;93.60
35700;DHT22;21818;51.078;12.108;2023-07-31T05:33:26;19.40;93.50
35700;DHT22;21818;51.078;12.108;2023-07-31T05:35:52;19.50;93.40
35700;DHT22;21818;51.078;12.108;2023-07-31T05:38:17;19.50;93.30
35700;DHT22;21818;51.078;12.108;2023-07-31T05:40:43;19.50;93.30
35700;DHT22;21818;51.078;12.108;2023-07-31T05:43:09;19.50;93.30
35700;DHT22;21818;51.078;12.108;2023-07-31T05:45:35;19.60;93.30
35700;DHT22;21818;51.078;12.108;2023-07-31T05:48:00;19.60;93.20
35700;DHT22;21818;51.078;12.108;2023-07-31T05:50:26;19.60;93.40
35700;DHT22;21818;51.078;12.108;2023-07-31T05:52:51;19.70;93.10
35700;DHT22;21818;51.078;12.108;2023-07-31T05:55:17;19.70;93.00
35700;DHT22;21818;51.078;12.108;2023-07-31T05:57:43;19.70;93.00
35700;DHT22;21818;51.078;12.108;2023-07-31T06:00:11;19.80;92.90
35700;DHT22;21818;51.078;12.108;2023-07-31T06:02:37;19.80;92.90
35700;DHT22;21818;51.078;12.108;2023-07-31T06:05:04;19.80;92.80
35700;DHT22;21818;51.078;12.108;2023-07-31T06:07:31;19.80;92.80
35700;DHT22;21818;51.078;12.108;2023-07-31T06:09:57;19.80;92.70
35700;DHT22;21818;51.078;12.108;2023-07-31T06:12:27;19.80;92.70
35700;DHT22;21818;51.078;12.108;2023-07-31T06:14:53;19.80;92.70
35700;DHT22;21818;51.078;12.108;2023-07-31T06:17:18;19.90;92.70
35700;DHT22;21818;51.078;12.108;2023-07-31T06:19:44;19.90;92.70
35700;DHT22;21818;51.078;12.108;2023-07-31T06:22:09;19.90;92.70
35700;DHT22;21818;51.078;12.108;2023-07-31T06:24:35;19.90;92.60
35700;DHT22;21818;51.078;12.108;2023-07-31T06:27:00;19.90;92.60
35700;DHT22;21818;51.078;12.108;2023-07-31T06:29:28;20.00;92.60
35700;DHT22;21818;51.078;12.108;2023-07-31T06:31:53;20.00;92.50
35700;DHT22;21818;51.078;12.108;2023-07-31T06:34:19;19.90;92.70
35700;DHT22;21818;51.078;12.108;2023-07-31T06:36:45;20.00;92.40
35700;DHT22;21818;51.078;12.108;2023-07-31T06:39:10;20.00;92.40
35700;DHT22;21818;51.078;12.108;2023-07-31T06:41:36;20.00;92.40
35700;DHT22;21818;51.078;12.108;2023-07-31T06:44:01;20.00;92.30
35700;DHT22;21818;51.078;12.108;2023-07-31T06:46:27;20.00;92.30
35700;DHT22;21818;51.078;12.108;2023-07-31T06:48:53;20.10;92.30
35700;DHT22;21818;51.078;12.108;2023-07-31T06:51:18;20.10;92.20
35700;DHT22;21818;51.078;12.108;2023-07-31T06:53:44;20.10;92.20
35700;DHT22;21818;51.078;12.108;2023-07-31T06:56:10;20.10;92.10
35700;DHT22;21818;51.078;12.108;2023-07-31T06:58:36;20.20;92.10
35700;DHT22;21818;51.078;12.108;2023-07-31T07:01:01;20.20;92.10
35700;DHT22;21818;51.078;12.108;2023-07-31T07:03:27;20.10;92.10
35700;DHT22;21818;51.078;12.108;2023-07-31T07:05:53;20.10;92.10
35700;DHT22;21818;51.078;12.108;2023-07-31T07:08:18;20.10;92.00
35700;DHT22;21818;51.078;12.108;2023-07-31T07:10:44;20.20;92.00
35700;DHT22;21818;51.078;12.108;2023-07-31T07:13:10;20.20;92.00
35700;DHT22;21818;51.078;12.108;2023-07-31T07:15:35;20.20;92.00
35700;DHT22;21818;51.078;12.108;2023-07-31T07:18:01;20.20;92.00
35700;DHT22;21818;51.078;12.108;2023-07-31T07:20:26;20.20;91.90
35700;DHT22;21818;51.078;12.108;2023-07-31T07:22:52;20.20;91.90
35700;DHT22;21818;51.078;12.108;2023-07-31T07:25:18;20.20;91.90
35700;DHT22;21818;51.078;12.108;2023-07-31T07:27:43;20.20;91.90
35700;DHT22;21818;51.078;12.108;2023-07-31T07:30:09;20.20;91.90
35700;DHT22;21818;51.078;12.108;2023-07-31T07:32:35;20.30;91.90
35700;DHT22;21818;51.078;12.108;2023-07-31T07:35:00;20.30;91.90
35700;DHT22;21818;51.078;12.108;2023-07-31T07:37:26;20.20;91.80
35700;DHT22;21818;51.078;12.108;2023-07-31T07:39:52;20.30;91.80
35700;DHT22;21818;51.078;12.108;2023-07-31T07:42:18;20.30;91.80
35700;DHT22;21818;51.078;12.108;2023-07-31T07:44:43;20.30;91.80
35700;DHT22;21818;51.078;12.108;2023-07-31T07:47:09;20.30;91.70
35700;DHT22;21818;51.078;12.108;2023-07-31T07:49:35;20.30;91.70
35700;DHT22;21818;51.078;12.108;2023-07-31T07:52:01;20.40;91.70
35700;DHT22;21818;51.078;12.108;2023-07-31T07:54:27;20.40;91.60
35700;DHT22;21818;51.078;12.108;2023-07-31T07:56:53;20.40;91.60
35700;DHT22;21818;51.078;12.108;2023-07-31T07:59:18;20.40;91.50
35700;DHT22;21818;51.078;12.108;2023-07-31T08:01:44;20.50;91.50
35700;DHT22;21818;51.078;12.108;2023-07-31T08:04:10;20.50;91.50
35700;DHT22;21818;51.078;12.108;2023-07-31T08:06:35;20.50;91.50
35700;DHT22;21818;51.078;12.108;2023-07-31T08:09:01;20.50;91.50
35700;DHT22;21818;51.078;12.108;2023-07-31T08:11:34;20.50;91.40
35700;DHT22;21818;51.078;12.108;2023-07-31T08:14:00;20.50;91.40
35700;DHT22;21818;51.078;12.108;2023-07-31T08:16:26;20.50;91.40
35700;DHT22;21818;51.078;12.108;2023-07-31T08:18:51;20.50;91.40
35700;DHT22;21818;51.078;12.108;2023-07-31T08:21:17;20.50;91.40
35700;DHT22;21818;51.078;12.108;2023-07-31T08:23:42;20.60;91.40
35700;DHT22;21818;51.078;12.108;2023-07-31T08:26:13;20.60;91.30
35700;DHT22;21818;51.078;12.108;2023-07-31T08:28:39;20.60;91.30
35700;DHT22;21818;51.078;12.108;2023-07-31T08:31:05;20.60;91.30
35700;DHT22;21818;51.078;12.108;2023-07-31T08:33:31;20.60;91.20
35700;DHT22;21818;51.078;12.108;2023-07-31T08:35:57;20.60;91.20
35700;DHT22;21818;51.078;12.108;2023-07-31T08:38:22;20.60;91.20
35700;DHT22;21818;51.078;12.108;2023-07-31T08:40:50;20.60;91.20
35700;DHT22;21818;51.078;12.108;2023-07-31T08:43:16;20.70;91.10
35700;DHT22;21818;51.078;12.108;2023-07-31T08:45:42;20.70;91.10
35700;DHT22;21818;51.078;12.108;2023-07-31T08:48:08;20.70;91.10
35700;DHT22;21818;51.078;12.108;2023-07-31T08:50:34;20.80;91.00
35700;DHT22;21818;51.078;12.108;2023-07-31T08:52:59;20.80;91.20
35700;DHT22;21818;51.078;12.108;2023-07-31T08:55:26;20.80;91.00
35700;DHT22;21818;51.078;12.108;2023-07-31T08:57:52;20.80;91.00
35700;DHT22;21818;51.078;12.108;2023-07-31T09:00:19;20.80;90.90
35700;DHT22;21818;51.078;12.108;2023-07-31T09:02:56;20.90;90.90
35700;DHT22;21818;51.078;12.108;2023-07-31T09:05:23;20.90;90.90
35700;DHT22;21818;51.078;12.108;2023-07-31T09:07:51;20.90;90.80
35700;DHT22;21818;51.078;12.108;2023-07-31T09:10:17;21.00;90.80
35700;DHT22;21818;51.078;12.108;2023-07-31T09:12:42;21.00;90.70
35700;DHT22;21818;51.078;12.108;2023-07-31T09:15:09;21.00;90.70
35700;DHT22;21818;51.078;12.108;2023-07-31T09:17:36;21.10;90.70
35700;DHT22;21818;51.078;12.108;2023-07-31T09:20:14;21.10;90.60
35700;DHT22;21818;51.078;12.108;2023-07-31T09:22:40;21.10;90.60
35700;DHT22;21818;51.078;12.108;2023-07-31T09:25:24;21.10;90.60
35700;DHT22;21818;51.078;12.108;2023-07-31T09:27:59;21.10;90.60
35700;DHT22;21818;51.078;12.108;2023-07-31T09:30:25;21.00;90.60
35700;DHT22;21818;51.078;12.108;2023-07-31T09:32:59;21.00;90.70
35700;DHT22;21818;51.078;12.108;2023-07-31T09:35:33;21.00;90.70
35700;DHT22;21818;51.078;12.108;2023-07-31T09:38:13;21.00;90.80
35700;DHT22;21818;51.078;12.108;2023-07-31T09:40:44;21.00;90.90
35700;DHT22;21818;51.078;12.108;2023-07-31T09:43:18;21.00;90.90
35700;DHT22;21818;51.078;12.108;2023-07-31T09:45:44;21.10;91.00
35700;DHT22;21818;51.078;12.108;2023-07-31T09:48:16;21.10;91.10
35700;DHT22;21818;51.078;12.108;2023-07-31T09:50:45;21.10;91.10
35700;DHT22;21818;51.078;12.108;2023-07-31T09:53:11;21.10;91.10
35700;DHT22;21818;51.078;12.108;2023-07-31T09:55:38;21.10;91.20
35700;DHT22;21818;51.078;12.108;2023-07-31T09:58:05;21.10;91.20
35700;DHT22;21818;51.078;12.108;2023-07-31T10:00:31;21.20;91.20
35700;DHT22;21818;51.078;12.108;2023-07-31T10:02:59;21.20;91.20
35700;DHT22;21818;51.078;12.108;2023-07-31T10:05:33;21.30;91.10
35700;DHT22;21818;51.078;12.108;2023-07-31T10:07:59;21.40;91.10
35700;DHT22;21818;51.078;12.108;2023-07-31T10:10:25;21.40;91.00
35700;DHT22;21818;51.078;12.108;2023-07-31T10:12:53;21.40;91.00
35700;DHT22;21818;51.078;12.108;2023-07-31T10:15:19;21.40;91.00
35700;DHT22;21818;51.078;12.108;2023-07-31T10:17:49;21.40;90.90
35700;DHT22;21818;51.078;12.108;2023-07-31T10:20:16;21.40;91.00
35700;DHT22;21818;51.078;12.108;2023-07-31T10:22:42;21.40;91.00
35700;DHT22;21818;51.078;12.108;2023-07-31T10:25:09;21.40;91.00
35700;DHT22;21818;51.078;12.108;2023-07-31T10:27:38;21.40;91.00
35700;DHT22;21818;51.078;12.108;2023-07-31T10:30:06;21.40;91.00
35700;DHT22;21818;51.078;12.108;2023-07-31T10:32:33;21.40;91.00
35700;DHT22;21818;51.078;12.108;2023-07-31T10:35:01;21.50;90.90
35700;DHT22;21818;51.078;12.108;2023-07-31T10:37:29;21.50;90.90
35700;DHT22;21818;51.078;12.108;2023-07-31T10:40:03;21.50;90.90
35700;DHT22;21818;51.078;12.108;2023-07-31T10:42:36;21.50;90.90
35700;DHT22;21818;51.078;12.108;2023-07-31T10:45:06;21.50;90.90
35700;DHT22;21818;51.078;12.108;2023-07-31T10:47:45;21.50;90.80
35700;DHT22;21818;51.078;12.108;2023-07-31T10:50:21;21.50;90.80
35700;DHT22;21818;51.078;12.108;2023-07-31T10:52:50;21.60;90.80
35700;DHT22;21818;51.078;12.108;2023-07-31T10:55:25;21.60;90.70
35700;DHT22;21818;51.078;12.108;2023-07-31T10:57:51;21.60;90.60
35700;DHT22;21818;51.078;12.108;2023-07-31T11:00:25;21.70;90.60
35700;DHT22;21818;51.078;12.108;2023-07-31T11:03:08;21.60;90.60
35700;DHT22;21818;51.078;12.108;2023-07-31T11:10:37;21.70;90.50
35700;DHT22;21818;51.078;12.108;2023-07-31T11:13:04;21.70;90.50
35700;DHT22;21818;51.078;12.108;2023-07-31T11:15:31;21.70;90.40
35700;DHT22;21818;51.078;12.108;2023-07-31T11:17:57;21.70;90.40
35700;DHT22;21818;51.078;12.108;2023-07-31T11:20:25;21.60;90.40
35700;DHT22;21818;51.078;12.108;2023-07-31T11:22:51;21.60;90.40
35700;DHT22;21818;51.078;12.108;2023-07-31T11:25:16;21.60;90.40
35700;DHT22;21818;51.078;12.108;2023-07-31T11:27:43;21.60;90.40
35700;DHT22;21818;51.078;12.108;2023-07-31T11:30:09;21.60;90.30
35700;DHT22;21818;51.078;12.108;2023-07-31T11:32:38;21.50;90.30
35700;DHT22;21818;51.078;12.108;2023-07-31T11:35:04;21.60;90.30
35700;DHT22;21818;51.078;12.108;2023-07-31T11:37:43;21.60;90.20
35700;DHT22;21818;51.078;12.108;2023-07-31T11:40:10;21.60;90.10
35700;DHT22;21818;51.078;12.108;2023-07-31T11:42:36;21.60;90.10
35700;DHT22;21818;51.078;12.108;2023-07-31T11:45:10;21.60;90.10
35700;DHT22;21818;51.078;12.108;2023-07-31T11:47:37;21.60;90.10
35700;DHT22;21818;51.078;12.108;2023-07-31T11:50:05;21.60;90.00
35700;DHT22;21818;51.078;12.108;2023-07-31T11:52:35;21.60;90.00
35700;DHT22;21818;51.078;12.108;2023-07-31T11:55:03;21.60;90.00
35700;DHT22;21818;51.078;12.108;2023-07-31T11:57:29;21.60;89.90
35700;DHT22;21818;51.078;12.108;2023-07-31T11:59:56;21.60;89.90
35700;DHT22;21818;51.078;12.108;2023-07-31T12:02:22;21.60;89.80
35700;DHT22;21818;51.078;12.108;2023-07-31T12:04:48;21.60;89.70
35700;DHT22;21818;51.078;12.108;2023-07-31T12:07:14;21.60;89.70
35700;DHT22;21818;51.078;12.108;2023-07-31T12:09:53;21.60;89.60
35700;DHT22;21818;51.078;12.108;2023-07-31T12:12:21;21.60;89.40
35700;DHT22;21818;51.078;12.108;2023-07-31T12:14:48;21.70;89.50
35700;DHT22;21818;51.078;12.108;2023-07-31T12:17:14;21.80;89.40
35700;DHT22;21818;51.078;12.108;2023-07-31T12:19:41;21.90;89.30
35700;DHT22;21818;51.078;12.108;2023-07-31T12:22:14;22.00;89.10
35700;DHT22;21818;51.078;12.108;2023-07-31T12:24:41;22.10;88.60
35700;DHT22;21818;51.078;12.108;2023-07-31T12:27:13;22.20;88.40
35700;DHT22;21818;51.078;12.108;2023-07-31T12:29:41;22.20;88.20
35700;DHT22;21818;51.078;12.108;2023-07-31T12:32:23;22.20;88.10
35700;DHT22;21818;51.078;12.108;2023-07-31T12:34:50;22.30;88.00
35700;DHT22;21818;51.078;12.108;2023-07-31T12:37:16;22.30;87.90
35700;DHT22;21818;51.078;12.108;2023-07-31T12:39:41;22.30;87.70
35700;DHT22;21818;51.078;12.108;2023-07-31T12:42:07;22.30;87.60
35700;DHT22;21818;51.078;12.108;2023-07-31T12:44:33;22.40;87.50
35700;DHT22;21818;51.078;12.108;2023-07-31T12:46:58;22.40;87.50
35700;DHT22;21818;51.078;12.108;2023-07-31T12:49:24;22.40;87.40
35700;DHT22;21818;51.078;12.108;2023-07-31T12:51:50;22.40;87.30
35700;DHT22;21818;51.078;12.108;2023-07-31T12:54:15;22.40;87.10
35700;DHT22;21818;51.078;12.108;2023-07-31T12:56:41;22.40;86.90
35700;DHT22;21818;51.078;12.108;2023-07-31T12:59:07;22.50;86.80
35700;DHT22;21818;51.078;12.108;2023-07-31T13:01:32;22.50;86.70
35700;DHT22;21818;51.078;12.108;2023-07-31T13:03:58;22.50;86.60
35700;DHT22;21818;51.078;12.108;2023-07-31T13:06:25;22.50;86.60
35700;DHT22;21818;51.078;12.108;2023-07-31T13:08:51;22.50;86.50
35700;DHT22;21818;51.078;12.108;2023-07-31T13:11:16;22.60;86.90
35700;DHT22;21818;51.078;12.108;2023-07-31T13:13:42;22.70;86.30
35700;DHT22;21818;51.078;12.108;2023-07-31T13:16:07;22.90;86.00
35700;DHT22;21818;51.078;12.108;2023-07-31T13:18:33;23.10;85.80
35700;DHT22;21818;51.078;12.108;2023-07-31T13:20:59;23.20;85.60
35700;DHT22;21818;51.078;12.108;2023-07-31T13:23:24;23.40;85.50
35700;DHT22;21818;51.078;12.108;2023-07-31T13:25:50;23.50;85.30
35700;DHT22;21818;51.078;12.108;2023-07-31T13:28:15;23.50;85.20
35700;DHT22;21818;51.078;12.108;2023-07-31T13:30:41;23.50;85.50
35700;DHT22;21818;51.078;12.108;2023-07-31T13:33:06;23.50;85.80
35700;DHT22;21818;51.078;12.108;2023-07-31T13:35:32;23.40;85.90
35700;DHT22;21818;51.078;12.108;2023-07-31T13:37:58;23.30;86.00
35700;DHT22;21818;51.078;12.108;2023-07-31T13:40:23;23.50;85.80
35700;DHT22;21818;51.078;12.108;2023-07-31T13:42:49;23.70;85.60
35700;DHT22;21818;51.078;12.108;2023-07-31T13:45:14;23.90;84.90
35700;DHT22;21818;51.078;12.108;2023-07-31T13:47:40;24.00;84.60
35700;DHT22;21818;51.078;12.108;2023-07-31T13:50:06;24.00;84.60
35700;DHT22;21818;51.078;12.108;2023-07-31T13:52:32;24.00;84.40
35700;DHT22;21818;51.078;12.108;2023-07-31T13:54:57;24.10;84.20
35700;DHT22;21818;51.078;12.108;2023-07-31T13:57:23;24.20;84.00
35700;DHT22;21818;51.078;12.108;2023-07-31T13:59:49;24.00;83.90
35700;DHT22;21818;51.078;12.108;2023-07-31T14:02:14;23.90;84.00
35700;DHT22;21818;51.078;12.108;2023-07-31T14:04:40;23.70;84.10
35700;DHT22;21818;51.078;12.108;2023-07-31T14:07:06;23.60;84.70
35700;DHT22;21818;51.078;12.108;2023-07-31T14:09:32;23.50;84.20
35700;DHT22;21818;51.078;12.108;2023-07-31T14:11:57;23.40;84.30
35700;DHT22;21818;51.078;12.108;2023-07-31T14:14:23;23.30;84.30
35700;DHT22;21818;51.078;12.108;2023-07-31T14:16:48;23.40;84.10
35700;DHT22;21818;51.078;12.108;2023-07-31T14:19:14;23.40;83.90
35700;DHT22;21818;51.078;12.108;2023-07-31T14:21:40;23.30;83.70
35700;DHT22;21818;51.078;12.108;2023-07-31T14:24:05;23.40;83.60
35700;DHT22;21818;51.078;12.108;2023-07-31T14:26:32;23.40;83.40
35700;DHT22;21818;51.078;12.108;2023-07-31T14:28:58;23.50;83.10
35700;DHT22;21818;51.078;12.108;2023-07-31T14:31:23;23.70;82.70
35700;DHT22;21818;51.078;12.108;2023-07-31T14:33:49;23.60;82.60
35700;DHT22;21818;51.078;12.108;2023-07-31T14:36:15;23.50;82.70
35700;DHT22;21818;51.078;12.108;2023-07-31T14:38:41;23.40;82.90
35700;DHT22;21818;51.078;12.108;2023-07-31T14:41:06;23.30;83.10
35700;DHT22;21818;51.078;12.108;2023-07-31T14:43:32;23.10;83.20
35700;DHT22;21818;51.078;12.108;2023-07-31T14:45:58;23.10;83.30
35700;DHT22;21818;51.078;12.108;2023-07-31T14:48:26;23.00;83.40
35700;DHT22;21818;51.078;12.108;2023-07-31T14:50:52;22.90;83.50
35700;DHT22;21818;51.078;12.108;2023-07-31T14:53:18;22.90;83.60
35700;DHT22;21818;51.078;12.108;2023-07-31T14:55:43;22.80;83.60
35700;DHT22;21818;51.078;12.108;2023-07-31T14:58:09;22.70;83.70
35700;DHT22;21818;51.078;12.108;2023-07-31T15:00:36;22.70;83.70
35700;DHT22;21818;51.078;12.108;2023-07-31T15:03:02;22.70;83.70
35700;DHT22;21818;51.078;12.108;2023-07-31T15:05:28;22.70;83.70
35700;DHT22;21818;51.078;12.108;2023-07-31T15:07:53;22.60;83.60
35700;DHT22;21818;51.078;12.108;2023-07-31T15:10:19;22.60;83.70
35700;DHT22;21818;51.078;12.108;2023-07-31T15:12:45;22.60;83.70
35700;DHT22;21818;51.078;12.108;2023-07-31T15:15:10;22.60;83.70
35700;DHT22;21818;51.078;12.108;2023-07-31T15:17:36;22.60;83.70
35700;DHT22;21818;51.078;12.108;2023-07-31T15:20:02;22.60;83.70
35700;DHT22;21818;51.078;12.108;2023-07-31T15:22:27;22.60;83.70